Time;durP1;ratioP1;P1;durP2;ratioP2;P2;SDS_P1;SDS_P2;PMS_P1;PMS_P2;Temp;Humidity;BMP_temperature;BMP_pressure;BME280_temperature;BME280_humidity;BME280_pressure;Samples;Min_cycle;Max_cycle;Signal;HPM_P1;HPM_P2
2023/12/25 00:01:26;;;;;;;23.40;3.90;;;;;;;10.97;100.00;100468.91;5023111;28;20489;-78
2023/12/25 00:03:52;;;;;;;24.80;4.15;;;;;;;11.00;100.00;100494.09;5021369;28;20038;-77
2023/12/25 00:06:17;;;;;;;28.75;3.65;;;;;;;11.02;100.00;100492.25;5022171;28;20077;-77
2023/12/25 00:08:43;;;;;;;26.17;3.60;;;;;;;11.03;100.00;100488.72;5024521;28;20076;-77
2023/12/25 00:11:10;;;;;;;24.10;3.97;;;;;;;11.02;100.00;100476.53;5018114;28;20052;-77
2023/12/25 00:13:35;;;;;;;30.25;4.07;;;;;;;11.03;100.00;100491.34;5023406;28;20025;-78
2023/12/25 00:16:01;;;;;;;28.30;4.05;;;;;;;11.02;100.00;100474.75;5035555;28;20403;-77
2023/12/25 00:18:26;;;;;;;24.92;3.25;;;;;;;11.04;100.00;100493.03;5035926;28;20071;-77
2023/12/25 00:20:51;;;;;;;20.35;3.25;;;;;;;11.05;100.00;100489.50;5035782;28;20034;-77
2023/12/25 00:23:17;;;;;;;26.13;3.35;;;;;;;11.03;100.00;100494.81;5034546;28;20040;-77
2023/12/25 00:25:42;;;;;;;22.83;3.58;;;;;;;11.04;100.00;100504.38;5018324;28;20041;-77
2023/12/25 00:28:07;;;;;;;27.67;5.38;;;;;;;11.05;100.00;100505.22;5026152;28;20056;-77
2023/12/25 00:30:33;;;;;;;34.90;5.47;;;;;;;11.06;100.00;100501.66;5036323;28;20390;-77
2023/12/25 00:32:58;;;;;;;18.50;4.13;;;;;;;11.08;100.00;100526.03;5035524;28;20352;-77
2023/12/25 00:35:24;;;;;;;32.60;4.50;;;;;;;11.10;100.00;100545.16;5036077;28;20328;-77
2023/12/25 00:37:52;;;;;;;26.75;3.92;;;;;;;11.12;100.00;100527.59;5036293;28;20260;-78
2023/12/25 00:40:17;;;;;;;27.93;4.27;;;;;;;11.10;100.00;100513.72;5036151;28;20056;-78
2023/12/25 00:42:42;;;;;;;21.13;3.78;;;;;;;11.07;100.00;100514.69;5036122;28;20040;-77
2023/12/25 00:45:08;;;;;;;31.30;4.18;;;;;;;11.06;100.00;100494.66;5035999;28;20037;-77
2023/12/25 00:47:33;;;;;;;27.90;3.50;;;;;;;11.08;100.00;100503.28;5035728;28;20100;-77
2023/12/25 00:49:59;;;;;;;25.13;3.53;;;;;;;11.06;100.00;100528.72;5035393;28;20329;-77
2023/12/25 00:52:24;;;;;;;25.92;3.22;;;;;;;11.07;100.00;100511.22;5035809;28;20043;-77
2023/12/25 00:54:49;;;;;;;27.02;3.33;;;;;;;11.06;100.00;100522.63;5031866;28;20103;-78
2023/12/25 00:57:15;;;;;;;23.60;3.42;;;;;;;11.07;100.00;100517.31;5035472;28;20061;-77
2023/12/25 00:59:40;;;;;;;25.00;3.85;;;;;;;11.07;100.00;100508.59;5032092;28;20041;-77
2023/12/25 01:02:05;;;;;;;27.90;4.63;;;;;;;11.08;100.00;100519.03;5033963;28;20044;-77
2023/12/25 01:04:31;;;;;;;23.85;3.60;;;;;;;11.06;100.00;100512.13;5034632;28;20132;-78
2023/12/25 01:06:56;;;;;;;23.60;3.50;;;;;;;11.08;100.00;100511.16;5015704;28;20056;-77
2023/12/25 01:09:22;;;;;;;26.48;3.35;;;;;;;11.05;100.00;100499.97;5029512;28;20037;-77
2023/12/25 01:11:47;;;;;;;23.45;4.20;;;;;;;11.05;100.00;100515.69;5018932;28;20237;-78
2023/12/25 01:14:13;;;;;;;21.17;3.03;;;;;;;11.04;100.00;100507.00;5015701;28;20289;-78
2023/12/25 01:16:38;;;;;;;20.42;3.50;;;;;;;11.04;100.00;100520.09;5034048;28;20368;-78
2023/12/25 01:19:04;;;;;;;25.73;3.88;;;;;;;11.04;100.00;100516.59;5034986;28;20033;-78
2023/12/25 01:21:29;;;;;;;23.52;3.75;;;;;;;11.04;100.00;100525.34;5034093;28;20025;-77
2023/12/25 01:23:55;;;;;;;26.00;4.00;;;;;;;11.03;100.00;100523.63;5035005;28;20044;-78
2023/12/25 01:26:20;;;;;;;30.60;4.10;;;;;;;11.01;100.00;100512.38;5035342;28;20348;-77
2023/12/25 01:28:45;;;;;;;29.15;4.07;;;;;;;11.00;100.00;100521.13;5035518;28;20044;-77
2023/12/25 01:31:11;;;;;;;22.75;3.05;;;;;;;11.01;100.00;100519.41;5034071;28;20120;-78
2023/12/25 01:33:36;;;;;;;23.60;4.00;;;;;;;10.98;100.00;100530.84;5035866;28;20045;-78
2023/12/25 01:36:02;;;;;;;23.27;3.13;;;;;;;10.99;100.00;100553.53;5034629;28;20048;-77
2023/12/25 01:38:27;;;;;;;24.48;3.65;;;;;;;11.01;100.00;100529.88;5035770;28;20038;-78
2023/12/25 01:40:53;;;;;;;22.67;3.13;;;;;;;11.02;100.00;100531.56;5027419;28;20049;-77
2023/12/25 01:43:18;;;;;;;16.75;3.22;;;;;;;11.05;100.00;100553.22;5034229;28;20120;-77
2023/12/25 01:45:44;;;;;;;27.50;3.10;;;;;;;11.06;100.00;100530.47;5033646;28;20029;-77
2023/12/25 01:48:11;;;;;;;20.70;3.88;;;;;;;11.07;100.00;100542.66;5032404;28;20052;-78
2023/12/25 01:50:37;;;;;;;24.95;4.45;;;;;;;11.07;100.00;100553.16;5021523;28;20042;-77
2023/12/25 01:53:03;;;;;;;16.33;2.58;;;;;;;11.02;100.00;100513.22;5015386;28;20034;-77
2023/12/25 01:55:29;;;;;;;17.58;3.28;;;;;;;10.98;100.00;100530.84;5017065;28;20025;-78
2023/12/25 01:57:54;;;;;;;13.50;2.83;;;;;;;10.98;100.00;100545.72;5019006;28;20097;-78
2023/12/25 02:00:20;;;;;;;31.67;4.30;;;;;;;10.98;100.00;100537.88;5028258;28;20037;-78
2023/12/25 02:02:45;;;;;;;20.25;3.05;;;;;;;10.98;100.00;100556.22;5029470;28;20101;-77
2023/12/25 02:05:11;;;;;;;19.50;3.22;;;;;;;10.99;100.00;100550.91;5015025;28;20430;-77
2023/12/25 02:07:42;;;;;;;18.52;3.63;;;;;;;11.02;100.00;100552.53;5023437;28;20037;-77
2023/12/25 02:10:08;;;;;;;17.40;3.33;;;;;;;11.03;100.00;100567.34;5026890;28;20037;-77
2023/12/25 02:12:34;;;;;;;16.13;2.90;;;;;;;11.02;100.00;100565.63;5015574;28;20026;-78
2023/12/25 02:15:00;;;;;;;21.75;2.92;;;;;;;11.02;100.00;100560.38;5014582;28;20274;-77
2023/12/25 02:17:26;;;;;;;23.08;3.55;;;;;;;11.01;100.00;100556.91;5017791;28;20520;-77
2023/12/25 02:19:53;;;;;;;27.88;4.15;;;;;;;11.03;100.00;100583.91;5027462;28;20052;-77
2023/12/25 02:22:19;;;;;;;22.85;4.47;;;;;;;11.05;100.00;100573.34;5034182;28;20643;-78
2023/12/25 02:24:54;;;;;;;25.25;2.97;;;;;;;11.06;100.00;100562.81;5034253;28;20053;-78
2023/12/25 02:27:19;;;;;;;17.52;2.88;;;;;;;11.07;100.00;100554.00;5033845;28;20044;-77
2023/12/25 02:29:45;;;;;;;18.05;3.20;;;;;;;11.09;100.00;100567.88;5033311;28;20364;-77
2023/12/25 02:32:10;;;;;;;22.98;2.88;;;;;;;11.10;100.00;100577.44;5033953;28;20091;-77
2023/12/25 02:34:35;;;;;;;16.50;3.33;;;;;;;11.09;100.00;100583.59;5025493;28;20045;-78
2023/12/25 02:37:01;;;;;;;25.50;3.42;;;;;;;11.10;100.00;100580.06;5033052;28;20041;-77
2023/12/25 02:39:26;;;;;;;28.15;3.92;;;;;;;11.08;100.00;100578.47;5033273;28;20041;-78
2023/12/25 02:41:51;;;;;;;24.98;3.67;;;;;;;11.09;100.00;100582.75;5034314;28;20120;-78
2023/12/25 02:44:17;;;;;;;16.70;2.92;;;;;;;11.10;100.00;100574.81;5034162;28;20067;-77
2023/12/25 02:46:42;;;;;;;16.40;2.35;;;;;;;11.17;100.00;100572.78;5034184;28;20104;-77
2023/12/25 02:49:07;;;;;;;22.02;3.50;;;;;;;11.17;100.00;100596.38;5033300;28;20041;-77
2023/12/25 02:51:33;;;;;;;14.05;2.55;;;;;;;11.13;100.00;100593.03;5033690;28;20387;-77
2023/12/25 02:53:58;;;;;;;24.55;3.50;;;;;;;11.08;100.00;100574.06;5026282;28;20040;-78
2023/12/25 02:56:24;;;;;;;19.40;3.38;;;;;;;11.08;100.00;100581.06;5026082;28;20343;-77
2023/12/25 02:58:49;;;;;;;20.08;3.55;;;;;;;11.07;100.00;100595.94;5030975;28;20030;-78
2023/12/25 03:01:14;;;;;;;22.58;3.00;;;;;;;11.06;100.00;100586.38;5015931;28;20038;-77
2023/12/25 03:03:40;;;;;;;20.88;2.72;;;;;;;11.08;100.00;100604.66;5015103;28;20037;-77
2023/12/25 03:06:05;;;;;;;18.15;2.83;;;;;;;11.09;100.00;100601.94;5033476;28;20116;-77
2023/12/25 03:08:31;;;;;;;19.17;2.95;;;;;;;11.08;100.00;100604.66;5033570;28;20249;-77
2023/12/25 03:10:56;;;;;;;18.75;3.08;;;;;;;11.09;100.00;100608.97;5028521;28;20570;-78
2023/12/25 03:13:21;;;;;;;32.58;4.65;;;;;;;11.11;100.00;100594.00;5033558;28;20226;-77
2023/12/25 03:15:46;;;;;;;32.28;3.58;;;;;;;11.10;100.00;100602.81;5018100;28;20042;-78
2023/12/25 03:18:12;;;;;;;23.23;3.40;;;;;;;11.12;100.00;100606.22;5024872;28;20037;-77
2023/12/25 03:20:37;;;;;;;25.23;3.67;;;;;;;11.10;100.00;100602.81;5021309;28;20042;-78
2023/12/25 03:23:03;;;;;;;11.55;2.55;;;;;;;11.12;100.00;100590.50;5013985;28;20104;-77
2023/12/25 03:25:28;;;;;;;21.83;3.28;;;;;;;11.12;100.00;100601.81;5018226;28;20038;-77
2023/12/25 03:27:53;;;;;;;16.25;2.60;;;;;;;11.12;100.00;100588.72;5033478;28;20040;-78
2023/12/25 03:30:19;;;;;;;18.55;2.80;;;;;;;11.12;100.00;100611.44;5031408;28;20067;-77
2023/12/25 03:32:44;;;;;;;14.88;2.45;;;;;;;11.10;100.00;100614.13;5014753;28;20033;-77
2023/12/25 03:35:09;;;;;;;19.02;2.60;;;;;;;11.13;100.00;100605.28;5030976;28;20145;-77
2023/12/25 03:37:35;;;;;;;22.35;3.30;;;;;;;11.13;100.00;100610.50;5032625;28;20033;-77
2023/12/25 03:40:00;;;;;;;17.67;2.53;;;;;;;11.14;100.00;100606.97;5032821;28;20072;-77
2023/12/25 03:42:26;;;;;;;15.57;2.47;;;;;;;11.13;100.00;100607.88;5037440;28;20029;-77
2023/12/25 03:44:51;;;;;;;15.38;2.80;;;;;;;11.12;100.00;100607.06;5036240;28;20275;-78
2023/12/25 03:47:18;;;;;;;14.75;2.58;;;;;;;11.13;100.00;100602.66;5030387;28;20260;-77
2023/12/25 03:49:43;;;;;;;21.95;3.20;;;;;;;11.12;100.00;100587.88;5018227;28;20041;-78
2023/12/25 03:52:08;;;;;;;19.00;2.88;;;;;;;11.13;100.00;100586.94;5017988;28;20032;-77
2023/12/25 03:54:34;;;;;;;17.35;2.90;;;;;;;11.12;100.00;100585.25;5018076;28;20044;-77
2023/12/25 03:56:59;;;;;;;17.70;2.55;;;;;;;11.13;100.00;100592.16;5030163;28;20040;-77
2023/12/25 03:59:24;;;;;;;23.58;2.92;;;;;;;11.15;100.00;100585.06;5021848;28;20245;-77
2023/12/25 04:01:50;;;;;;;12.60;2.33;;;;;;;11.15;100.00;100585.06;5035809;28;20045;-77
2023/12/25 04:04:15;;;;;;;14.05;2.58;;;;;;;11.12;100.00;100586.09;5037504;28;20037;-77
2023/12/25 04:06:40;;;;;;;16.25;2.33;;;;;;;11.14;100.00;100586.84;5034966;28;20079;-78
2023/12/25 04:09:06;;;;;;;15.50;2.72;;;;;;;11.17;100.00;100593.75;5016233;28;20054;-77
2023/12/25 04:11:31;;;;;;;16.38;2.25;;;;;;;11.19;100.00;100593.66;5023728;28;20033;-77
2023/12/25 04:13:56;;;;;;;10.13;2.30;;;;;;;11.21;100.00;100602.31;5036304;28;20116;-78
2023/12/25 04:16:24;;;;;;;20.38;3.08;;;;;;;11.20;100.00;100604.06;5036229;28;20029;-77
2023/12/25 04:18:54;;;;;;;13.18;2.17;;;;;;;11.20;100.00;100595.38;5033747;28;20037;-77
2023/12/25 04:21:28;;;;;;;15.18;2.30;;;;;;;11.19;100.00;100598.88;5018744;28;20084;-77
2023/12/25 04:23:54;;;;;;;16.13;2.75;;;;;;;11.19;100.00;100599.75;5036146;28;20045;-77
2023/12/25 04:26:20;;;;;;;10.63;2.15;;;;;;;11.18;100.00;100598.06;5035500;28;20248;-77
2023/12/25 04:28:46;;;;;;;11.60;2.42;;;;;;;11.14;100.00;100602.59;5034913;28;20037;-77
2023/12/25 04:31:12;;;;;;;11.38;2.08;;;;;;;11.16;100.00;100602.53;5034573;28;20029;-77
2023/12/25 04:33:37;;;;;;;16.52;2.30;;;;;;;11.18;100.00;100594.59;5035639;28;20041;-78
2023/12/25 04:36:03;;;;;;;27.38;3.28;;;;;;;11.16;100.00;100604.28;5036102;28;20040;-77
2023/12/25 04:38:29;;;;;;;13.05;2.13;;;;;;;11.17;100.00;100599.00;5036179;28;20285;-77
2023/12/25 04:40:54;;;;;;;12.75;1.90;;;;;;;11.13;100.00;100589.53;5035551;28;20076;-77
2023/12/25 04:43:20;;;;;;;11.98;2.55;;;;;;;11.11;100.00;100594.00;5023166;28;20355;-77
2023/12/25 04:45:45;;;;;;;18.52;1.63;;;;;;;11.10;100.00;100605.44;5016955;28;20037;-77
2023/12/25 04:48:10;;;;;;;11.45;1.88;;;;;;;11.10;100.00;100587.94;5017398;28;20462;-77
2023/12/25 04:50:36;;;;;;;9.52;1.50;;;;;;;11.10;100.00;100584.47;5015359;28;20303;-77
2023/12/25 04:53:02;;;;;;;2.88;1.10;;;;;;;11.08;100.00;100578.47;5024327;28;20567;-78
2023/12/25 04:55:28;;;;;;;9.38;1.10;;;;;;;11.06;100.00;100585.50;5036209;28;20048;-77
2023/12/25 04:57:53;;;;;;;3.78;0.88;;;;;;;10.99;100.00;100584.09;5030328;28;20048;-78
2023/12/25 05:00:19;;;;;;;2.70;0.80;;;;;;;10.90;100.00;100588.00;5024530;28;20347;-77
2023/12/25 05:02:44;;;;;;;1.48;0.63;;;;;;;10.80;100.00;100566.63;5023930;28;20509;-78
2023/12/25 05:05:10;;;;;;;5.20;0.80;;;;;;;10.76;100.00;100580.78;5016316;28;20045;-77
2023/12/25 05:07:35;;;;;;;2.53;0.45;;;;;;;10.73;100.00;100588.75;5017938;28;20052;-77
2023/12/25 05:10:00;;;;;;;3.53;0.60;;;;;;;10.70;100.00;100594.16;5016869;28;20034;-77
2023/12/25 05:12:26;;;;;;;2.22;0.60;;;;;;;10.70;100.00;100596.78;5034202;28;20030;-77
2023/12/25 05:14:51;;;;;;;3.75;0.60;;;;;;;10.66;100.00;100593.44;5017183;28;20222;-77
2023/12/25 05:17:17;;;;;;;1.60;0.40;;;;;;;10.61;100.00;100594.56;5015875;28;20271;-77
2023/12/25 05:19:43;;;;;;;1.02;0.50;;;;;;;10.58;100.00;100592.94;5032431;28;20198;-78
2023/12/25 05:22:08;;;;;;;1.95;0.60;;;;;;;10.55;100.00;100590.44;5026185;28;20033;-78
2023/12/25 05:24:34;;;;;;;2.65;0.50;;;;;;;10.52;100.00;100601.91;5016255;28;20030;-78
2023/12/25 05:26:59;;;;;;;1.70;0.50;;;;;;;10.57;100.00;100607.81;5015494;28;20136;-77
2023/12/25 05:29:25;;;;;;;4.57;0.65;;;;;;;10.50;100.00;100608.97;5017537;28;20069;-77
2023/12/25 05:31:50;;;;;;;3.17;0.55;;;;;;;10.47;100.00;100614.34;5015222;28;20355;-78
2023/12/25 05:34:15;;;;;;;3.72;0.88;;;;;;;10.45;100.00;100604.88;5022999;28;20041;-77
2023/12/25 05:36:41;;;;;;;4.28;0.90;;;;;;;10.46;100.00;100599.56;5035114;28;20308;-77
2023/12/25 05:39:06;;;;;;;3.72;0.80;;;;;;;10.36;100.00;100582.56;5014302;28;20052;-77
2023/12/25 05:41:32;;;;;;;4.80;1.10;;;;;;;10.35;100.00;100604.41;5014314;28;20225;-78
2023/12/25 05:43:57;;;;;;;3.22;0.60;;;;;;;10.30;100.00;100603.75;5025003;28;20221;-77
2023/12/25 05:46:22;;;;;;;11.00;1.50;;;;;;;10.27;100.00;100609.09;5035207;28;20384;-77
2023/12/25 05:48:48;;;;;;;5.65;0.98;;;;;;;10.21;100.00;100604.13;5024527;28;20036;-78
2023/12/25 05:51:13;;;;;;;8.68;1.58;;;;;;;10.13;100.00;100607.94;5022982;28;20041;-78
2023/12/25 05:53:38;;;;;;;9.65;1.17;;;;;;;10.21;100.00;100622.47;5024253;28;20040;-78
2023/12/25 05:56:04;;;;;;;6.57;1.02;;;;;;;10.25;100.00;100613.56;5034217;28;20041;-77
2023/12/25 05:58:29;;;;;;;11.70;1.65;;;;;;;10.17;100.00;100614.72;5020867;28;20076;-77
2023/12/25 06:00:55;;;;;;;5.78;1.05;;;;;;;10.12;100.00;100608.00;5028944;28;20037;-78
2023/12/25 06:03:20;;;;;;;8.43;1.20;;;;;;;10.12;100.00;100608.00;5035104;28;20025;-78
2023/12/25 06:05:46;;;;;;;7.95;1.17;;;;;;;10.12;100.00;100606.22;5032224;28;20096;-77
2023/12/25 06:08:11;;;;;;;5.80;0.90;;;;;;;10.08;100.00;100615.13;5033191;28;20264;-77
2023/12/25 06:10:36;;;;;;;7.50;1.25;;;;;;;10.08;100.00;100606.44;5035163;28;20380;-77
2023/12/25 06:13:02;;;;;;;4.40;1.63;;;;;;;10.06;100.00;100611.72;5030806;28;20344;-77
2023/12/25 06:15:28;;;;;;;5.05;0.88;;;;;;;10.05;100.00;100610.00;5015793;28;20236;-78
2023/12/25 06:17:53;;;;;;;5.07;0.82;;;;;;;10.04;100.00;100608.31;5015135;28;20042;-78
2023/12/25 06:20:20;;;;;;;4.60;0.85;;;;;;;10.03;100.00;100609.22;5032068;28;20033;-77
2023/12/25 06:22:46;;;;;;;5.75;0.93;;;;;;;10.08;100.00;100616.91;5025380;28;20033;-77
2023/12/25 06:25:11;;;;;;;6.72;1.70;;;;;;;10.08;100.00;100609.03;5035091;28;20052;-77
2023/12/25 06:27:37;;;;;;;3.58;1.27;;;;;;;10.06;100.00;100603.88;5034996;28;20332;-78
2023/12/25 06:30:04;;;;;;;3.85;0.93;;;;;;;10.06;100.00;100597.78;5016287;28;20041;-78
2023/12/25 06:32:29;;;;;;;6.53;1.10;;;;;;;10.07;100.00;100600.31;5033020;28;20351;-77
2023/12/25 06:34:55;;;;;;;3.83;0.73;;;;;;;10.07;100.00;100602.94;5022044;28;20037;-78
2023/12/25 06:37:20;;;;;;;4.25;1.05;;;;;;;10.12;100.00;100602.75;5019117;28;20064;-77
2023/12/25 06:39:45;;;;;;;5.53;1.00;;;;;;;10.17;100.00;100613.88;5030280;28;20398;-77
2023/12/25 06:42:11;;;;;;;3.60;0.93;;;;;;;10.21;100.00;100620.69;5019810;28;20127;-77
2023/12/25 06:44:38;;;;;;;2.90;0.90;;;;;;;10.19;100.00;100609.44;5028264;28;20040;-77
2023/12/25 06:47:03;;;;;;;3.50;0.50;;;;;;;10.22;100.00;100614.53;5031695;28;20100;-77
2023/12/25 06:49:29;;;;;;;3.47;0.85;;;;;;;10.23;100.00;100618.84;5036019;28;20032;-77
2023/12/25 06:51:54;;;;;;;6.47;1.08;;;;;;;10.25;100.00;100617.00;5026933;28;20113;-77
2023/12/25 06:54:19;;;;;;;4.72;0.93;;;;;;;10.28;100.00;100624.75;5033774;28;20037;-78
2023/12/25 06:56:45;;;;;;;2.83;0.68;;;;;;;10.31;100.00;100623.78;5032647;28;20071;-77
2023/12/25 06:59:10;;;;;;;8.23;2.35;;;;;;;10.29;100.00;100623.81;5033601;28;20070;-77
2023/12/25 07:01:35;;;;;;;3.47;0.52;;;;;;;10.31;100.00;100629.00;5033815;28;20052;-77
2023/12/25 07:04:01;;;;;;;4.25;0.60;;;;;;;10.32;100.00;100628.97;5033305;28;20030;-77
2023/12/25 07:06:26;;;;;;;5.43;0.77;;;;;;;10.31;100.00;100634.25;5030815;28;20411;-77
2023/12/25 07:08:52;;;;;;;3.17;0.88;;;;;;;10.29;100.00;100636.06;5026798;28;20332;-77
2023/12/25 07:11:17;;;;;;;6.15;0.80;;;;;;;10.29;100.00;100643.91;5024968;28;20064;-77
2023/12/25 07:13:43;;;;;;;5.32;0.70;;;;;;;10.30;100.00;100646.47;5027356;28;20041;-77
2023/12/25 07:16:09;;;;;;;5.65;0.90;;;;;;;10.29;100.00;100642.13;5024743;28;20556;-77
2023/12/25 07:18:35;;;;;;;4.53;0.60;;;;;;;10.28;100.00;100645.69;5029666;28;20063;-77
2023/12/25 07:21:00;;;;;;;2.45;0.77;;;;;;;10.27;100.00;100646.59;5018962;28;20052;-77
2023/12/25 07:23:26;;;;;;;6.13;1.10;;;;;;;10.21;100.00;100641.63;5018842;28;20336;-78
2023/12/25 07:25:51;;;;;;;6.55;1.20;;;;;;;10.21;100.00;100646.03;5024614;28;20348;-78
2023/12/25 07:28:17;;;;;;;4.32;0.77;;;;;;;10.20;100.00;100642.53;5023616;28;20051;-77
2023/12/25 07:30:43;;;;;;;2.10;0.80;;;;;;;10.19;100.00;100641.69;5032510;28;20403;-77
2023/12/25 07:33:09;;;;;;;8.25;0.90;;;;;;;10.13;100.00;100655.03;5018107;28;20560;-77
2023/12/25 07:35:35;;;;;;;2.92;0.77;;;;;;;10.09;100.00;100655.22;5031377;28;20044;-77
2023/12/25 07:38:00;;;;;;;1.55;0.85;;;;;;;10.09;100.00;100663.06;5027466;28;20113;-77
2023/12/25 07:40:26;;;;;;;8.75;1.00;;;;;;;10.05;100.00;100656.25;5029274;28;20067;-77
2023/12/25 07:42:51;;;;;;;6.32;1.02;;;;;;;10.05;100.00;100664.97;5028131;28;20041;-78
2023/12/25 07:45:16;;;;;;;5.05;1.08;;;;;;;10.01;100.00;100660.78;5034076;28;20038;-77
2023/12/25 07:47:42;;;;;;;5.60;1.00;;;;;;;10.01;100.00;100670.41;5030384;28;20030;-78
2023/12/25 07:50:08;;;;;;;5.20;0.80;;;;;;;9.97;100.00;100675.75;5029940;28;20068;-77
2023/12/25 07:52:33;;;;;;;16.42;3.58;;;;;;;9.98;100.00;100674.81;5031141;28;20028;-77
2023/12/25 07:54:59;;;;;;;7.78;0.80;;;;;;;9.96;100.00;100668.78;5015826;28;20017;-77
2023/12/25 07:57:24;;;;;;;3.05;0.80;;;;;;;9.96;100.00;100662.72;5033806;28;20033;-77
2023/12/25 07:59:49;;;;;;;7.57;0.85;;;;;;;9.98;100.00;100660.88;5032665;28;20036;-77
2023/12/25 08:02:16;;;;;;;8.77;0.80;;;;;;;9.96;100.00;100660.94;5029706;28;20037;-77
2023/12/25 08:04:41;;;;;;;7.90;0.98;;;;;;;9.94;100.00;100667.16;5025979;28;20493;-78
2023/12/25 08:07:06;;;;;;;5.38;1.10;;;;;;;9.97;100.00;100664.44;5025903;28;20099;-77
2023/12/25 08:09:32;;;;;;;5.43;0.82;;;;;;;9.96;100.00;100681.88;5028532;28;20033;-77
2023/12/25 08:11:58;;;;;;;4.20;0.70;;;;;;;9.96;100.00;100681.88;5030537;28;20029;-77
2023/12/25 08:14:24;;;;;;;4.45;0.75;;;;;;;10.01;100.00;100675.63;5030645;28;20033;-77
2023/12/25 08:16:49;;;;;;;5.35;1.48;;;;;;;10.00;100.00;100672.13;5032493;28;20300;-78
2023/12/25 08:19:15;;;;;;;3.28;0.93;;;;;;;10.05;100.00;100678.03;5029772;28;20045;-77
2023/12/25 08:21:40;;;;;;;2.38;0.68;;;;;;;10.01;100.00;100671.25;5032000;28;20048;-77
2023/12/25 08:24:06;;;;;;;4.22;0.82;;;;;;;10.02;100.00;100665.06;5028885;28;20359;-78
2023/12/25 08:26:31;;;;;;;5.85;0.82;;;;;;;10.03;100.00;100672.03;5021698;28;20452;-77
2023/12/25 08:28:57;;;;;;;4.38;0.77;;;;;;;10.02;100.00;100677.31;5027295;28;20414;-78
2023/12/25 08:31:23;;;;;;;6.00;0.80;;;;;;;10.02;100.00;100675.53;5022812;28;20077;-77
2023/12/25 08:33:48;;;;;;;3.30;0.55;;;;;;;10.01;100.00;100683.47;5025065;28;20064;-77
2023/12/25 08:36:13;;;;;;;4.05;0.80;;;;;;;10.03;100.00;100682.50;5035235;28;20064;-77
2023/12/25 08:38:39;;;;;;;5.68;0.75;;;;;;;10.03;100.00;100687.72;5043387;28;20045;-77
2023/12/25 08:41:05;;;;;;;4.72;0.75;;;;;;;10.01;100.00;100683.47;5034910;28;20045;-77
2023/12/25 08:43:30;;;;;;;3.80;0.70;;;;;;;10.03;100.00;100679.88;5033391;28;20040;-77
2023/12/25 08:45:56;;;;;;;1.92;0.50;;;;;;;9.99;100.00;100696.63;5034493;28;20033;-77
2023/12/25 08:48:21;;;;;;;3.35;0.90;;;;;;;9.99;100.00;100696.63;5033742;28;20033;-77
2023/12/25 08:50:47;;;;;;;2.63;0.77;;;;;;;10.01;100.00;100700.00;5034436;28;20052;-77
2023/12/25 08:53:12;;;;;;;3.33;0.60;;;;;;;10.03;100.00;100694.72;5034133;28;20045;-77
2023/12/25 08:55:37;;;;;;;3.58;1.00;;;;;;;10.04;100.00;100688.56;5035163;28;20060;-78
2023/12/25 08:58:03;;;;;;;4.85;0.82;;;;;;;10.06;100.00;100689.34;5034896;28;20037;-78
2023/12/25 09:00:29;;;;;;;6.97;1.25;;;;;;;10.06;100.00;100699.81;5034519;28;20104;-77
2023/12/25 09:02:55;;;;;;;4.07;0.90;;;;;;;10.05;100.00;100709.44;5033392;28;20025;-77
2023/12/25 09:05:20;;;;;;;6.82;1.35;;;;;;;10.06;100.00;100702.44;5033526;28;20048;-77
2023/12/25 09:07:45;;;;;;;6.63;1.15;;;;;;;10.04;100.00;100723.44;5034729;28;20233;-78
2023/12/25 09:10:11;;;;;;;5.35;0.98;;;;;;;10.05;100.00;100724.28;5034947;28;20037;-77
2023/12/25 09:12:38;;;;;;;3.20;1.00;;;;;;;10.05;100.00;100734.75;5035543;28;20040;-77
2023/12/25 09:15:04;;;;;;;9.23;1.08;;;;;;;10.04;100.00;100733.91;5035115;28;20036;-77
2023/12/25 09:17:30;;;;;;;2.00;1.00;;;;;;;10.08;100.00;100748.56;5036050;28;20044;-77
2023/12/25 09:19:56;;;;;;;6.68;0.80;;;;;;;10.07;100.00;100746.84;5035459;28;20068;-77
2023/12/25 09:22:24;;;;;;;6.63;1.13;;;;;;;10.04;100.00;100757.47;5036078;28;20041;-77
2023/12/25 09:24:51;;;;;;;9.35;0.98;;;;;;;10.03;100.00;100754.91;5034628;28;20025;-77
2023/12/25 09:27:16;;;;;;;6.43;0.95;;;;;;;10.03;100.00;100739.22;5036044;28;20029;-77
2023/12/25 09:29:41;;;;;;;3.70;0.77;;;;;;;10.00;100.00;100737.53;5034954;28;20072;-77
2023/12/25 09:32:07;;;;;;;3.85;1.08;;;;;;;9.97;100.00;100735.91;5035461;28;20079;-77
2023/12/25 09:34:32;;;;;;;11.80;1.55;;;;;;;10.00;100.00;100727.06;5035546;28;20041;-77
2023/12/25 09:36:58;;;;;;;8.98;1.00;;;;;;;10.03;100.00;100733.97;5034399;28;20304;-77
2023/12/25 09:39:24;;;;;;;6.95;1.92;;;;;;;10.04;100.00;100726.06;5035451;28;20033;-77
2023/12/25 09:41:50;;;;;;;3.53;1.10;;;;;;;10.04;100.00;100733.03;5033866;28;20067;-78
2023/12/25 09:44:15;;;;;;;4.43;0.82;;;;;;;10.02;100.00;100733.09;5035784;28;20103;-77
2023/12/25 09:46:41;;;;;;;4.43;1.08;;;;;;;10.02;100.00;100725.25;5035277;28;20041;-77
2023/12/25 09:49:06;;;;;;;7.80;1.08;;;;;;;10.04;100.00;100731.31;5033195;28;20112;-77
2023/12/25 09:51:33;;;;;;;2.65;0.85;;;;;;;10.06;100.00;100728.59;5035185;28;20033;-78
2023/12/25 09:53:59;;;;;;;6.18;0.88;;;;;;;10.07;100.00;100741.63;5034882;28;20043;-77
2023/12/25 09:56:26;;;;;;;3.70;0.80;;;;;;;10.11;100.00;100734.50;5035357;28;20037;-77
2023/12/25 09:58:54;;;;;;;2.80;0.55;;;;;;;10.13;100.00;100735.28;5034515;28;20060;-78
2023/12/25 10:01:20;;;;;;;4.85;1.02;;;;;;;10.12;100.00;100755.38;5035259;28;20037;-77
2023/12/25 10:03:46;;;;;;;5.13;0.98;;;;;;;10.11;100.00;100764.13;5034631;28;20336;-77
2023/12/25 10:06:12;;;;;;;5.97;0.85;;;;;;;10.14;100.00;100760.56;5034776;28;20245;-77
2023/12/25 10:08:38;;;;;;;2.72;0.90;;;;;;;10.15;100.00;100750.03;5034905;28;20309;-77
2023/12/25 10:11:04;;;;;;;3.60;0.80;;;;;;;10.18;100.00;100749.03;5034822;28;20367;-77
2023/12/25 10:13:31;;;;;;;3.85;0.70;;;;;;;10.16;100.00;100745.63;5034991;28;20065;-78
2023/12/25 10:15:56;;;;;;;1.65;0.45;;;;;;;10.13;100.00;100749.25;5034296;28;20041;-77
2023/12/25 10:18:22;;;;;;;1.38;0.40;;;;;;;10.13;100.00;100745.75;5034883;28;20056;-77
2023/12/25 10:20:58;;;;;;;2.45;0.60;;;;;;;10.12;100.00;100742.28;5033080;28;20124;-77
2023/12/25 10:23:28;;;;;;;5.05;1.45;;;;;;;10.11;100.00;100734.50;5034811;28;20072;-77
2023/12/25 10:25:54;;;;;;;2.55;0.55;;;;;;;10.10;100.00;100745.91;5032577;28;20041;-77
2023/12/25 10:28:25;;;;;;;3.13;0.60;;;;;;;10.12;100.00;100744.06;5034776;28;20096;-77
2023/12/25 10:31:07;;;;;;;1.63;0.60;;;;;;;10.12;100.00;100768.47;5033893;28;20254;-77
2023/12/25 10:33:34;;;;;;;6.30;1.17;;;;;;;10.09;100.00;100768.56;5034398;28;20033;-77
2023/12/25 10:36:10;;;;;;;7.65;1.08;;;;;;;10.08;100.00;100758.19;5033817;28;20063;-77
2023/12/25 10:38:38;;;;;;;7.35;0.80;;;;;;;10.09;100.00;100776.41;5034187;28;20355;-77
2023/12/25 10:41:24;;;;;;;2.97;0.80;;;;;;;10.11;100.00;100773.75;5034006;28;20033;-77
2023/12/25 10:43:56;;;;;;;3.75;0.57;;;;;;;10.10;100.00;100782.53;5033562;28;20060;-77
2023/12/25 10:46:24;;;;;;;5.50;0.70;;;;;;;10.14;100.00;100786.72;5034323;28;20037;-77
2023/12/25 10:48:53;;;;;;;1.05;0.50;;;;;;;10.16;100.00;100777.88;5033507;28;20335;-77
2023/12/25 10:51:34;;;;;;;4.63;1.17;;;;;;;10.19;100.00;100774.31;5033857;28;20057;-77
2023/12/25 10:54:04;;;;;;;8.65;0.90;;;;;;;10.23;100.00;100759.34;5032334;28;20021;-77
2023/12/25 10:56:35;;;;;;;4.22;0.80;;;;;;;10.23;100.00;100749.72;5026724;28;20057;-77
2023/12/25 10:59:10;;;;;;;5.38;1.20;;;;;;;10.27;100.00;100763.53;5023234;28;20341;-77
2023/12/25 11:01:37;;;;;;;4.90;1.10;;;;;;;10.32;100.00;100764.22;5027468;28;20033;-77
2023/12/25 11:04:03;;;;;;;3.70;1.05;;;;;;;10.31;100.00;100750.25;5028971;28;20064;-77
2023/12/25 11:06:28;;;;;;;4.15;0.70;;;;;;;10.30;100.00;100748.53;5025544;28;20038;-77
2023/12/25 11:08:54;;;;;;;5.75;1.02;;;;;;;10.29;100.00;100746.00;5026669;28;20041;-77